createdAt,value
2018-12-26T00:00:43.264Z,8.53
2018-12-26T00:03:11.576Z,9.63
2018-12-26T00:05:39.847Z,9.43
2018-12-26T00:08:27.062Z,10.60
2018-12-26T00:11:14.228Z,9.90
2018-12-26T00:13:42.462Z,12.30
2018-12-26T00:16:10.751Z,11.78
2018-12-26T00:18:39.488Z,11.12
2018-12-26T00:21:09.378Z,10.88
2018-12-26T00:23:37.634Z,12.05
2018-12-26T00:28:41.023Z,12.33
2018-12-26T00:33:56.493Z,12.85
2018-12-26T00:36:25.087Z,13.95
2018-12-26T00:38:55.715Z,13.45
2018-12-26T00:41:23.937Z,13.05
2018-12-26T00:43:52.180Z,12.25
2018-12-26T00:46:20.410Z,12.90
2018-12-26T00:48:49.612Z,12.90
2018-12-26T00:51:36.679Z,13.75
2018-12-26T00:54:16.694Z,12.78
2018-12-26T00:56:45.107Z,11.75
2018-12-26T00:59:15.501Z,13.48
2018-12-26T01:01:44.068Z,13.88
2018-12-26T01:04:12.241Z,12.90
2018-12-26T01:06:40.492Z,13.60
2018-12-26T01:12:16.356Z,12.33
2018-12-26T01:14:44.663Z,14.07
2018-12-26T01:17:35.154Z,13.03
2018-12-26T01:19:42.867Z,14.10
2018-12-26T01:22:11.215Z,13.98
2018-12-26T01:28:05.959Z,14.10
2018-12-26T01:30:34.507Z,13.35
2018-12-26T01:33:05.185Z,13.32
2018-12-26T01:35:33.501Z,12.50
2018-12-26T01:38:01.778Z,14.87
2018-12-26T01:40:48.835Z,14.78
2018-12-26T01:43:17.106Z,14.98
2018-12-26T01:45:47.674Z,15.15
2018-12-26T01:48:16.211Z,17.02
2018-12-26T01:50:44.499Z,15.00
2018-12-26T01:53:12.723Z,15.38
2018-12-26T01:55:40.973Z,16.17
2018-12-26T01:58:09.279Z,16.35
2018-12-26T02:03:43.684Z,14.47
2018-12-26T02:06:11.845Z,14.73
2018-12-26T02:08:40.055Z,14.07
2018-12-26T02:11:08.235Z,17.00
2018-12-26T02:13:38.767Z,16.25
2018-12-26T02:16:06.965Z,16.17
2018-12-26T02:18:35.193Z,17.42
2018-12-26T02:21:03.347Z,16.10
2018-12-26T02:23:31.608Z,18.37
2018-12-26T02:25:59.835Z,17.50
2018-12-26T02:28:46.968Z,15.68
2018-12-26T02:31:15.204Z,15.72
2018-12-26T02:33:45.175Z,18.12
2018-12-26T02:36:13.390Z,18.00
2018-12-26T02:38:41.553Z,16.12
2018-12-26T02:41:09.759Z,17.37
2018-12-26T02:46:45.560Z,15.95
2018-12-26T02:49:14.424Z,16.85
2018-12-26T02:51:42.656Z,16.20
2018-12-26T02:54:10.937Z,17.70
2018-12-26T02:56:46.509Z,15.63
2018-12-26T02:59:09.138Z,15.45
2018-12-26T03:01:37.335Z,17.20
2018-12-26T03:04:05.560Z,16.70
2018-12-26T03:06:33.745Z,17.20
2018-12-26T03:09:33.773Z,17.52
2018-12-26T03:11:50.792Z,18.05
2018-12-26T03:14:19.035Z,15.58
2018-12-26T03:16:47.276Z,20.15
2018-12-26T03:19:35.815Z,16.52
2018-12-26T03:22:04.049Z,16.20
2018-12-26T03:24:51.177Z,16.57
2018-12-26T03:30:39.532Z,17.95
2018-12-26T03:33:07.760Z,16.67
2018-12-26T03:35:36.069Z,16.52
2018-12-26T03:43:59.643Z,19.23
2018-12-26T03:49:35.480Z,16.52
2018-12-26T03:52:06.031Z,16.87
2018-12-26T03:54:35.267Z,18.02
2018-12-26T03:57:06.312Z,17.37
2018-12-26T03:59:33.383Z,16.20
2018-12-26T04:02:20.494Z,15.78
2018-12-26T04:05:07.684Z,17.52
2018-12-26T04:07:36.178Z,15.88
2018-12-26T04:12:58.783Z,18.32
2018-12-26T04:15:26.961Z,17.30
2018-12-26T04:17:55.182Z,17.32
2018-12-26T04:20:23.459Z,17.27
2018-12-26T04:26:01.897Z,16.65
2018-12-26T04:28:30.108Z,16.82
2018-12-26T04:30:58.702Z,16.87
2018-12-26T04:33:26.903Z,16.75
2018-12-26T04:35:55.154Z,15.38
2018-12-26T04:38:23.302Z,18.10
2018-12-26T04:40:53.854Z,16.75
2018-12-26T04:43:22.525Z,20.12
2018-12-26T04:48:54.623Z,16.97
2018-12-26T04:50:54.406Z,16.32
2018-12-26T04:53:22.620Z,16.77
2018-12-26T04:55:50.811Z,16.27
2018-12-26T05:01:07.899Z,16.75
2018-12-26T05:03:36.446Z,16.70
2018-12-26T05:06:04.640Z,17.15
2018-12-26T05:08:52.171Z,17.65
2018-12-26T05:11:20.401Z,15.65
2018-12-26T05:13:48.759Z,17.40
2018-12-26T05:16:36.885Z,17.45
2018-12-26T05:19:05.126Z,18.55
2018-12-26T05:21:33.342Z,17.00
2018-12-26T05:24:01.504Z,16.40
2018-12-26T05:26:29.844Z,20.12
2018-12-26T05:28:57.982Z,17.80
2018-12-26T05:31:26.204Z,16.73
2018-12-26T05:33:54.399Z,17.73
2018-12-26T05:36:22.605Z,17.25
2018-12-26T05:38:50.795Z,16.50
2018-12-26T05:41:40.510Z,16.57
2018-12-26T05:44:08.749Z,16.70
2018-12-26T05:49:44.635Z,16.20
2018-12-26T05:52:12.847Z,19.55
2018-12-26T05:54:41.079Z,16.62
2018-12-26T05:57:09.346Z,17.30
2018-12-26T05:59:37.557Z,17.52
2018-12-26T06:02:05.965Z,17.05
2018-12-26T06:04:34.189Z,18.12
2018-12-26T06:07:02.349Z,17.77
2018-12-26T06:12:11.469Z,19.55
2018-12-26T06:14:39.694Z,16.97
2018-12-26T06:17:07.948Z,17.37
2018-12-26T06:24:53.731Z,18.25
2018-12-26T06:27:21.932Z,17.57
2018-12-26T06:29:50.161Z,18.73
2018-12-26T06:32:37.315Z,18.77
2018-12-26T06:38:07.090Z,18.73
2018-12-26T06:40:35.307Z,17.80
2018-12-26T06:43:03.542Z,17.17
2018-12-26T06:45:31.827Z,17.82
2018-12-26T06:48:07.239Z,17.05
2018-12-26T06:50:35.499Z,18.23
2018-12-26T06:53:03.717Z,18.20
2018-12-26T06:55:31.959Z,17.92
2018-12-26T06:58:00.530Z,19.50
2018-12-26T07:03:09.518Z,18.82
2018-12-26T07:05:37.649Z,19.73
2018-12-26T07:08:05.778Z,20.10
2018-12-26T07:10:33.917Z,20.40
2018-12-26T07:13:02.082Z,19.42
2018-12-26T07:15:30.207Z,21.02
2018-12-26T07:17:58.389Z,20.50
2018-12-26T07:20:26.534Z,20.27
2018-12-26T07:22:54.678Z,21.48
2018-12-26T07:25:22.827Z,21.00
2018-12-26T07:27:50.970Z,22.20
2018-12-26T07:30:19.106Z,22.60
2018-12-26T07:32:47.264Z,21.48
2018-12-26T07:35:15.473Z,19.50
2018-12-26T07:37:43.611Z,19.77
2018-12-26T07:40:11.741Z,19.45
2018-12-26T07:42:39.914Z,20.75
2018-12-26T07:45:08.506Z,20.25
2018-12-26T07:47:36.664Z,18.42
2018-12-26T07:50:05.059Z,20.55
2018-12-26T07:52:33.263Z,19.87
2018-12-26T07:55:01.395Z,20.00
2018-12-26T07:57:29.551Z,21.25
2018-12-26T07:59:57.694Z,18.92
2018-12-26T08:02:25.886Z,20.70
2018-12-26T08:04:54.045Z,20.72
2018-12-26T08:07:22.203Z,21.05
2018-12-26T08:09:50.330Z,19.73
2018-12-26T08:12:18.627Z,21.93
2018-12-26T08:14:46.789Z,19.50
2018-12-26T08:17:14.918Z,19.57
2018-12-26T08:19:43.088Z,21.07
2018-12-26T08:22:11.230Z,20.50
2018-12-26T08:24:39.417Z,19.10
2018-12-26T08:27:07.586Z,20.97
2018-12-26T08:29:37.581Z,20.90
2018-12-26T08:32:05.740Z,21.02
2018-12-26T08:34:33.887Z,21.68
2018-12-26T08:37:02.084Z,21.15
2018-12-26T08:39:30.241Z,20.23
2018-12-26T08:41:58.375Z,20.95
2018-12-26T08:44:26.545Z,21.77
2018-12-26T08:46:54.686Z,21.80
2018-12-26T08:49:22.868Z,22.10
2018-12-26T08:51:51.007Z,21.30
2018-12-26T08:54:19.158Z,20.88
2018-12-26T08:56:47.345Z,22.48
2018-12-26T08:59:15.467Z,21.07
2018-12-26T09:01:43.638Z,21.37
2018-12-26T09:04:11.765Z,23.60
2018-12-26T09:06:39.921Z,21.42
2018-12-26T09:09:08.055Z,21.12
2018-12-26T09:11:36.254Z,20.65
2018-12-26T09:14:04.518Z,19.95
2018-12-26T09:16:32.682Z,19.55
2018-12-26T09:19:00.816Z,21.65
2018-12-26T09:21:28.994Z,20.52
2018-12-26T09:23:57.161Z,20.48
2018-12-26T09:26:25.302Z,20.60
2018-12-26T09:28:53.451Z,21.95
2018-12-26T09:31:21.725Z,20.30
2018-12-26T09:33:49.891Z,21.20
2018-12-26T09:36:18.097Z,22.02
2018-12-26T09:38:46.238Z,21.25
2018-12-26T09:41:14.411Z,21.33
2018-12-26T09:43:42.578Z,21.87
2018-12-26T09:46:10.750Z,22.32
2018-12-26T09:48:38.918Z,23.05
2018-12-26T09:51:07.061Z,20.55
2018-12-26T09:53:35.274Z,22.35
2018-12-26T09:56:03.449Z,23.05
2018-12-26T09:58:31.627Z,21.65
2018-12-26T10:00:59.753Z,21.95
2018-12-26T10:03:27.946Z,21.85
2018-12-26T10:05:56.141Z,24.37
2018-12-26T10:08:24.337Z,22.95
2018-12-26T10:10:52.497Z,20.20
2018-12-26T10:13:20.658Z,22.73
2018-12-26T10:15:48.803Z,21.17
2018-12-26T10:18:16.986Z,23.67
2018-12-26T10:20:45.166Z,22.62
2018-12-26T10:23:13.380Z,19.52
2018-12-26T10:25:41.555Z,24.18
2018-12-26T10:28:09.761Z,22.35
2018-12-26T10:30:37.905Z,22.65
2018-12-26T10:35:39.463Z,23.87
2018-12-26T10:38:07.627Z,23.02
2018-12-26T10:40:54.710Z,22.13
2018-12-26T10:43:22.939Z,22.40
2018-12-26T10:45:51.196Z,25.05
2018-12-26T10:51:09.291Z,23.40
2018-12-26T10:53:37.518Z,23.77
2018-12-26T10:59:22.754Z,23.75
2018-12-26T11:07:32.664Z,22.65
2018-12-26T11:10:08.220Z,23.42
2018-12-26T11:12:36.417Z,25.05
2018-12-26T11:15:07.287Z,23.35
2018-12-26T11:17:37.914Z,24.15
2018-12-26T11:20:07.841Z,25.90
2018-12-26T11:22:36.158Z,23.25
2018-12-26T11:25:07.900Z,24.67
2018-12-26T11:27:36.207Z,24.27
2018-12-26T11:30:12.995Z,22.55
2018-12-26T11:32:43.772Z,23.27
2018-12-26T11:35:14.210Z,22.35
2018-12-26T11:38:01.473Z,23.57
2018-12-26T11:40:29.710Z,23.83
2018-12-26T11:42:57.914Z,22.82
2018-12-26T11:45:28.604Z,23.45
2018-12-26T11:47:59.666Z,23.73
2018-12-26T11:50:46.762Z,24.00
2018-12-26T11:53:15.052Z,24.60
2018-12-26T11:55:43.318Z,23.15
2018-12-26T11:58:30.422Z,24.95
2018-12-26T12:03:58.346Z,23.45
2018-12-26T12:06:20.701Z,24.02
2018-12-26T12:08:48.915Z,23.47
2018-12-26T12:11:36.079Z,23.42
2018-12-26T12:19:25.698Z,22.40
2018-12-26T12:22:12.822Z,21.37
2018-12-26T12:25:00.391Z,21.45
2018-12-26T12:27:28.664Z,21.60
2018-12-26T12:29:59.026Z,21.52
2018-12-26T12:32:28.986Z,25.35
2018-12-26T12:34:57.325Z,23.47
2018-12-26T12:37:25.693Z,22.25
2018-12-26T12:39:53.884Z,22.45
2018-12-26T12:42:41.069Z,21.90
2018-12-26T12:45:09.297Z,22.17
2018-12-26T12:47:56.398Z,23.35
2018-12-26T12:50:43.589Z,23.00
2018-12-26T12:53:11.814Z,24.25
2018-12-26T12:55:41.965Z,22.90
2018-12-26T13:00:57.648Z,24.43
2018-12-26T13:03:26.073Z,23.80
2018-12-26T13:05:54.280Z,23.83
2018-12-26T13:08:22.500Z,23.62
2018-12-26T13:10:51.097Z,23.30
2018-12-26T13:13:19.554Z,22.55
2018-12-26T13:15:47.830Z,22.70
2018-12-26T13:18:16.049Z,21.02
2018-12-26T13:20:45.098Z,21.00
2018-12-26T13:23:13.334Z,23.92
2018-12-26T13:25:41.901Z,21.17
2018-12-26T13:28:10.128Z,22.75
2018-12-26T13:30:38.452Z,18.92
2018-12-26T13:36:14.271Z,21.30
2018-12-26T13:38:42.827Z,23.63
2018-12-26T13:41:11.067Z,20.05
2018-12-26T13:43:39.244Z,17.48
2018-12-26T13:46:07.465Z,18.57
2018-12-26T13:48:54.573Z,19.17
2018-12-26T13:54:10.199Z,19.32
2018-12-26T13:56:38.479Z,19.92
2018-12-26T13:59:25.630Z,18.90
2018-12-26T14:01:56.359Z,20.55
2018-12-26T14:04:25.026Z,19.02
2018-12-26T14:06:55.058Z,17.32
2018-12-26T14:09:23.267Z,18.23
2018-12-26T14:11:51.514Z,18.45
2018-12-26T14:14:19.651Z,19.20
2018-12-26T14:16:47.879Z,18.25
2018-12-26T14:19:16.089Z,19.50
2018-12-26T14:21:44.478Z,18.87
2018-12-26T14:24:12.689Z,17.73
2018-12-26T14:26:40.847Z,15.30
2018-12-26T14:29:09.035Z,18.95
2018-12-26T14:31:37.168Z,17.37
2018-12-26T14:34:05.357Z,17.67
2018-12-26T14:36:33.509Z,18.23
2018-12-26T14:39:01.693Z,18.17
2018-12-26T14:41:29.910Z,18.27
2018-12-26T14:43:58.128Z,17.98
2018-12-26T14:46:26.322Z,16.97
2018-12-26T14:48:54.474Z,15.58
2018-12-26T14:51:26.465Z,17.40
2018-12-26T14:53:52.572Z,17.20
2018-12-26T14:56:20.746Z,18.82
2018-12-26T14:58:49.273Z,18.05
2018-12-26T15:01:17.417Z,17.95
2018-12-26T15:03:45.567Z,17.30
2018-12-26T15:06:13.708Z,17.77
2018-12-26T15:08:41.912Z,17.67
2018-12-26T15:11:10.100Z,17.17
2018-12-26T15:13:38.273Z,17.95
2018-12-26T15:16:06.542Z,17.82
2018-12-26T15:18:34.763Z,18.20
2018-12-26T15:21:02.976Z,17.15
2018-12-26T15:23:31.102Z,17.85
2018-12-26T15:25:59.276Z,17.17
2018-12-26T15:28:27.446Z,20.30
2018-12-26T15:30:55.946Z,18.00
2018-12-26T15:33:24.084Z,16.20
2018-12-26T15:35:52.718Z,18.27
2018-12-26T15:38:20.879Z,18.70
2018-12-26T15:40:49.075Z,17.00
2018-12-26T15:43:17.223Z,18.17
2018-12-26T15:45:45.367Z,19.50
2018-12-26T15:48:13.562Z,18.62
2018-12-26T15:50:41.780Z,16.27
2018-12-26T15:53:09.994Z,17.48
2018-12-26T15:55:38.176Z,17.30
2018-12-26T15:58:06.407Z,18.60
2018-12-26T16:00:37.472Z,18.12
2018-12-26T16:03:04.444Z,16.50
2018-12-26T16:05:32.574Z,17.30
2018-12-26T16:08:00.756Z,17.85
2018-12-26T16:10:28.939Z,16.02
2018-12-26T16:12:57.154Z,17.92
2018-12-26T16:15:25.333Z,16.73
2018-12-26T16:17:53.636Z,15.95
2018-12-26T16:20:21.798Z,17.70
2018-12-26T16:22:49.995Z,18.60
2018-12-26T16:25:18.150Z,17.40
2018-12-26T16:27:46.383Z,17.90
2018-12-26T16:30:14.552Z,16.70
2018-12-26T16:32:42.725Z,17.20
2018-12-26T16:35:10.880Z,17.95
2018-12-26T16:37:39.079Z,16.80
2018-12-26T16:40:07.902Z,16.70
2018-12-26T16:42:36.137Z,16.02
2018-12-26T16:45:04.770Z,16.27
2018-12-26T16:47:32.958Z,15.60
2018-12-26T16:50:01.158Z,16.27
2018-12-26T16:52:29.298Z,16.35
2018-12-26T16:54:57.702Z,14.68
2018-12-26T16:57:25.895Z,16.50
2018-12-26T16:59:54.113Z,18.20
2018-12-26T17:02:22.237Z,16.40
2018-12-26T17:04:50.449Z,17.27
2018-12-26T17:07:18.582Z,15.28
2018-12-26T17:09:46.770Z,16.52
2018-12-26T17:12:14.929Z,17.23
2018-12-26T17:14:43.130Z,17.85
2018-12-26T17:20:18.985Z,17.20
2018-12-26T17:22:47.163Z,17.45
2018-12-26T17:25:15.354Z,18.05
2018-12-26T17:27:43.490Z,17.98
2018-12-26T17:33:06.311Z,17.90
2018-12-26T17:35:34.598Z,17.65
2018-12-26T17:38:16.622Z,16.62
2018-12-26T17:40:51.754Z,16.75
2018-12-26T17:43:19.978Z,17.23
2018-12-26T17:45:48.203Z,18.45
2018-12-26T17:48:16.393Z,19.05
2018-12-26T17:51:03.560Z,18.02
2018-12-26T17:53:52.041Z,17.25
2018-12-26T17:56:39.310Z,16.97
2018-12-26T18:02:21.475Z,15.98
2018-12-26T18:05:08.533Z,17.60
2018-12-26T18:07:36.955Z,17.77
2018-12-26T18:10:05.927Z,15.72
2018-12-26T18:12:34.153Z,16.97
2018-12-26T18:15:02.624Z,17.35
2018-12-26T18:17:30.830Z,16.85
2018-12-26T18:19:59.596Z,17.10
2018-12-26T18:22:27.886Z,16.10
2018-12-26T18:24:56.184Z,18.75
2018-12-26T18:27:24.402Z,18.37
2018-12-26T18:29:54.784Z,19.23
2018-12-26T18:32:23.076Z,16.25
2018-12-26T18:34:51.275Z,15.90
2018-12-26T18:37:38.384Z,14.75
2018-12-26T18:43:17.999Z,15.93
2018-12-26T18:45:46.332Z,17.85
2018-12-26T18:48:14.612Z,15.20
2018-12-26T18:51:02.116Z,17.27
2018-12-26T18:53:49.318Z,15.48
2018-12-26T18:56:17.703Z,15.28
2018-12-26T18:58:45.992Z,14.20
2018-12-26T19:01:14.276Z,15.90
2018-12-26T19:03:44.866Z,13.53
2018-12-26T19:06:13.523Z,14.60
2018-12-26T19:08:41.767Z,15.53
2018-12-26T19:11:10.042Z,15.00
2018-12-26T19:13:38.294Z,14.95
2018-12-26T19:16:25.410Z,14.73
2018-12-26T19:18:54.213Z,18.45
2018-12-26T19:21:22.539Z,18.52
2018-12-26T19:23:50.779Z,20.37
2018-12-26T19:26:19.008Z,16.23
2018-12-26T19:28:47.338Z,15.98
2018-12-26T19:31:15.596Z,15.60
2018-12-26T19:33:43.856Z,14.07
2018-12-26T19:36:12.177Z,15.63
2018-12-26T19:42:00.880Z,17.02
2018-12-26T19:44:29.207Z,14.50
2018-12-26T19:46:57.511Z,15.08
2018-12-26T19:55:16.447Z,15.50
2018-12-26T19:57:44.767Z,14.70
2018-12-26T20:00:13.370Z,14.83
2018-12-26T20:02:41.574Z,14.90
2018-12-26T20:05:28.675Z,16.75
2018-12-26T20:07:59.306Z,19.02
2018-12-26T20:10:27.550Z,15.50
2018-12-26T20:12:55.819Z,15.88
2018-12-26T20:15:23.977Z,17.35
2018-12-26T20:18:11.339Z,17.00
2018-12-26T20:20:58.599Z,16.55
2018-12-26T20:26:29.191Z,16.30
2018-12-26T20:28:47.275Z,16.93
2018-12-26T20:31:15.839Z,16.23
2018-12-26T20:39:17.748Z,14.38
2018-12-26T20:41:46.042Z,15.75
2018-12-26T20:44:14.483Z,15.40
2018-12-26T20:47:23.711Z,14.53
2018-12-26T20:49:52.248Z,15.58
2018-12-26T20:52:39.402Z,13.60
2018-12-26T20:55:07.816Z,13.85
2018-12-26T20:57:36.037Z,14.25
2018-12-26T21:03:19.510Z,14.73
2018-12-26T21:05:49.523Z,15.05
2018-12-26T21:08:18.104Z,12.73
2018-12-26T21:11:17.226Z,13.20
2018-12-26T21:16:17.591Z,13.85
2018-12-26T21:22:12.548Z,14.00
2018-12-26T21:24:41.286Z,13.83
2018-12-26T21:27:09.723Z,12.70
2018-12-26T21:29:40.481Z,12.63
2018-12-26T21:32:14.078Z,14.73
2018-12-26T21:34:39.323Z,14.20
2018-12-26T21:37:07.615Z,12.95
2018-12-26T21:42:44.196Z,13.05
2018-12-26T21:45:15.874Z,14.15
2018-12-26T21:48:02.965Z,12.78
2018-12-26T21:50:50.145Z,14.15
2018-12-26T21:56:14.831Z,14.43
2018-12-26T21:59:02.010Z,14.07
2018-12-26T22:01:30.312Z,12.15
2018-12-26T22:03:58.628Z,13.48
2018-12-26T22:06:27.030Z,13.93
2018-12-26T22:09:14.274Z,13.15
2018-12-26T22:11:42.655Z,13.43
2018-12-26T22:14:11.019Z,14.30
2018-12-26T22:16:39.295Z,14.40
2018-12-26T22:21:42.522Z,13.93
2018-12-26T22:24:10.817Z,12.20
2018-12-26T22:26:43.394Z,12.68
2018-12-26T22:29:22.536Z,11.43
2018-12-26T22:31:51.179Z,10.88
2018-12-26T22:34:22.124Z,11.70
2018-12-26T22:39:58.130Z,13.18
2018-12-26T22:45:16.873Z,12.82
2018-12-26T22:48:04.071Z,13.20
2018-12-26T22:53:27.171Z,12.10
2018-12-26T22:55:55.509Z,11.00
2018-12-26T22:58:23.818Z,11.97
2018-12-26T23:00:54.569Z,12.45
2018-12-26T23:06:30.714Z,12.33
2018-12-26T23:08:58.979Z,10.55
2018-12-26T23:14:03.759Z,11.00
2018-12-26T23:19:26.794Z,10.93
2018-12-26T23:21:55.037Z,12.30
2018-12-26T23:24:23.303Z,12.23
2018-12-26T23:26:51.600Z,12.25
2018-12-26T23:29:19.802Z,12.30
2018-12-26T23:31:48.042Z,11.00
2018-12-26T23:42:38.368Z,10.80
2018-12-26T23:45:06.703Z,13.25
2018-12-26T23:47:54.763Z,11.28
2018-12-26T23:50:23.051Z,11.53
2018-12-26T23:52:51.315Z,13.50
2018-12-26T23:55:38.479Z,11.88
2018-12-26T23:58:07.214Z,11.80
